sensor_id;sensor_type;location;lat;lon;timestamp;pressure;altitude;pressure_sealevel;temperature;humidity
39823;BME280;25499;53.958;10.970;2023-03-04T06:52:04;101528.88;;;3.96;93.18
39823;BME280;25499;53.958;10.970;2023-03-04T06:54:29;101522.25;;;4.02;92.66
39823;BME280;25499;53.958;10.970;2023-03-04T06:56:55;101507.38;;;3.95;91.68
39823;BME280;25499;53.958;10.970;2023-03-04T06:59:20;101509.09;;;3.95;91.38
39823;BME280;25499;53.958;10.970;2023-03-04T07:01:46;101512.66;;;3.98;91.39
39823;BME280;25499;53.958;10.970;2023-03-04T07:04:12;101512.88;;;4.04;90.16
39823;BME280;25499;53.958;10.970;2023-03-04T07:06:37;101494.72;;;4.01;88.86
39823;BME280;25499;53.958;10.970;2023-03-04T07:09:03;101504.41;;;4.08;89.23
39823;BME280;25499;53.958;10.970;2023-03-04T07:11:28;101519.88;;;4.08;89.93
39823;BME280;25499;53.958;10.970;2023-03-04T07:13:54;101530.41;;;4.15;90.34
39823;BME280;25499;53.958;10.970;2023-03-04T07:16:20;101529.88;;;4.23;90.29
39823;BME280;25499;53.958;10.970;2023-03-04T07:18:47;101527.34;;;4.25;90.57
39823;BME280;25499;53.958;10.970;2023-03-04T07:21:13;101530.03;;;4.28;90.56
39823;BME280;25499;53.958;10.970;2023-03-04T07:23:39;101519.63;;;4.25;89.98
39823;BME280;25499;53.958;10.970;2023-03-04T07:26:05;101526.09;;;4.39;89.87
39823;BME280;25499;53.958;10.970;2023-03-04T07:28:32;101517.16;;;4.28;89.64
39823;BME280;25499;53.958;10.970;2023-03-04T07:33:35;101543.34;;;4.40;89.68
39823;BME280;25499;53.958;10.970;2023-03-04T07:36:01;101548.72;;;4.46;89.81
39823;BME280;25499;53.958;10.970;2023-03-04T07:38:26;101529.31;;;4.32;88.98
39823;BME280;25499;53.958;10.970;2023-03-04T07:40:56;101525.06;;;4.34;88.50
39823;BME280;25499;53.958;10.970;2023-03-04T07:43:22;101524.16;;;4.32;88.17
39823;BME280;25499;53.958;10.970;2023-03-04T07:45:47;101524.97;;;4.31;87.93
39823;BME280;25499;53.958;10.970;2023-03-04T07:48:13;101538.06;;;4.37;88.51
39823;BME280;25499;53.958;10.970;2023-03-04T07:50:38;101546.78;;;4.41;88.93
39823;BME280;25499;53.958;10.970;2023-03-04T07:53:04;101558.53;;;4.57;89.56
39823;BME280;25499;53.958;10.970;2023-03-04T07:55:29;101565.22;;;4.52;89.78
39823;BME280;25499;53.958;10.970;2023-03-04T07:57:56;101562.97;;;4.61;89.33
39823;BME280;25499;53.958;10.970;2023-03-04T08:00:21;101543.97;;;4.59;88.75
39823;BME280;25499;53.958;10.970;2023-03-04T08:02:47;101535.38;;;4.58;87.58
39823;BME280;25499;53.958;10.970;2023-03-04T08:05:13;101533.72;;;4.60;87.43
39823;BME280;25499;53.958;10.970;2023-03-04T08:07:38;101540.19;;;4.75;87.25
39823;BME280;25499;53.958;10.970;2023-03-04T08:10:04;101551.50;;;4.78;87.60
39823;BME280;25499;53.958;10.970;2023-03-04T08:12:29;101544.91;;;4.86;87.50
39823;BME280;25499;53.958;10.970;2023-03-04T08:14:55;101551.09;;;4.92;87.54
39823;BME280;25499;53.958;10.970;2023-03-04T08:17:20;101555.22;;;4.86;87.52
39823;BME280;25499;53.958;10.970;2023-03-04T08:19:46;101562.31;;;4.92;87.77
39823;BME280;25499;53.958;10.970;2023-03-04T08:22:12;101567.31;;;4.88;88.25
39823;BME280;25499;53.958;10.970;2023-03-04T08:24:38;101573.97;;;4.81;88.45
39823;BME280;25499;53.958;10.970;2023-03-04T08:27:03;101584.34;;;4.82;89.01
39823;BME280;25499;53.958;10.970;2023-03-04T08:29:29;101586.91;;;4.82;89.34
39823;BME280;25499;53.958;10.970;2023-03-04T08:31:54;101571.25;;;4.78;88.60
39823;BME280;25499;53.958;10.970;2023-03-04T08:34:22;101567.03;;;4.80;88.41
39823;BME280;25499;53.958;10.970;2023-03-04T08:36:48;101555.69;;;4.75;87.56
39823;BME280;25499;53.958;10.970;2023-03-04T08:39:15;101548.16;;;4.55;87.49
39823;BME280;25499;53.958;10.970;2023-03-04T08:41:41;101543.06;;;4.57;87.09
39823;BME280;25499;53.958;10.970;2023-03-04T08:44:08;101549.03;;;4.56;87.16
39823;BME280;25499;53.958;10.970;2023-03-04T08:46:35;101539.41;;;4.50;86.92
39823;BME280;25499;53.958;10.970;2023-03-04T08:49:01;101535.63;;;4.40;86.71
39823;BME280;25499;53.958;10.970;2023-03-04T08:51:27;101534.94;;;4.46;86.26
39823;BME280;25499;53.958;10.970;2023-03-04T08:53:52;101537.69;;;4.51;86.30
39823;BME280;25499;53.958;10.970;2023-03-04T08:56:18;101556.03;;;4.60;86.41
39823;BME280;25499;53.958;10.970;2023-03-04T08:58:43;101537.97;;;4.60;85.36
39823;BME280;25499;53.958;10.970;2023-03-04T09:01:10;101547.66;;;4.65;85.22
39823;BME280;25499;53.958;10.970;2023-03-04T09:03:37;101537.78;;;4.79;84.50
39823;BME280;25499;53.958;10.970;2023-03-04T09:06:03;101515.63;;;4.59;84.68
39823;BME280;25499;53.958;10.970;2023-03-04T09:08:29;101516.31;;;4.55;84.51
39823;BME280;25499;53.958;10.970;2023-03-04T09:10:55;101507.00;;;4.58;83.80
39823;BME280;25499;53.958;10.970;2023-03-04T09:13:24;101511.13;;;4.79;83.42
39823;BME280;25499;53.958;10.970;2023-03-04T09:15:51;101530.06;;;4.79;83.43
39823;BME280;25499;53.958;10.970;2023-03-04T09:18:19;101531.75;;;4.79;83.48
39823;BME280;25499;53.958;10.970;2023-03-04T09:20:45;101538.75;;;4.83;83.76
39823;BME280;25499;53.958;10.970;2023-03-04T09:23:11;101551.59;;;4.81;84.53
39823;BME280;25499;53.958;10.970;2023-03-04T09:25:37;101559.41;;;4.83;84.85
39823;BME280;25499;53.958;10.970;2023-03-04T09:28:03;101544.50;;;4.74;84.39
39823;BME280;25499;53.958;10.970;2023-03-04T09:30:28;101542.94;;;4.79;84.57
39823;BME280;25499;53.958;10.970;2023-03-04T09:32:54;101535.97;;;4.77;83.80
39823;BME280;25499;53.958;10.970;2023-03-04T09:35:19;101549.28;;;4.89;83.80
39823;BME280;25499;53.958;10.970;2023-03-04T09:37:45;101544.72;;;4.80;84.16
39823;BME280;25499;53.958;10.970;2023-03-04T09:40:22;101550.78;;;4.82;84.59
39823;BME280;25499;53.958;10.970;2023-03-04T09:42:55;101560.75;;;4.97;84.34
39823;BME280;25499;53.958;10.970;2023-03-04T09:45:26;101567.47;;;4.92;84.51
39823;BME280;25499;53.958;10.970;2023-03-04T09:47:53;101549.44;;;4.94;84.41
39823;BME280;25499;53.958;10.970;2023-03-04T09:50:20;101527.06;;;4.93;83.37
39823;BME280;25499;53.958;10.970;2023-03-04T09:55:48;101500.81;;;4.79;80.99
39823;BME280;25499;53.958;10.970;2023-03-04T10:00:52;101512.28;;;4.89;80.82
39823;BME280;25499;53.958;10.970;2023-03-04T10:03:24;101511.09;;;5.04;80.81
39823;BME280;25499;53.958;10.970;2023-03-04T10:06:00;101494.47;;;4.96;80.21
39823;BME280;25499;53.958;10.970;2023-03-04T10:11:10;101519.69;;;5.05;80.27
39823;BME280;25499;53.958;10.970;2023-03-04T10:13:55;101521.25;;;5.00;80.57
39823;BME280;25499;53.958;10.970;2023-03-04T10:16:26;101534.78;;;4.93;80.81
39823;BME280;25499;53.958;10.970;2023-03-04T10:21:36;101528.25;;;5.04;81.28
39823;BME280;25499;53.958;10.970;2023-03-04T10:24:14;101529.31;;;5.11;81.18
39823;BME280;25499;53.958;10.970;2023-03-04T10:26:44;101524.97;;;5.08;81.19
39823;BME280;25499;53.958;10.970;2023-03-04T10:29:20;101527.63;;;5.11;81.18
39823;BME280;25499;53.958;10.970;2023-03-04T10:31:46;101527.09;;;5.21;80.54
39823;BME280;25499;53.958;10.970;2023-03-04T10:34:14;101515.81;;;5.18;80.33
39823;BME280;25499;53.958;10.970;2023-03-04T10:36:52;101527.91;;;5.20;80.52
39823;BME280;25499;53.958;10.970;2023-03-04T10:39:34;101535.50;;;5.14;80.64
39823;BME280;25499;53.958;10.970;2023-03-04T10:44:29;101542.66;;;5.23;81.13
39823;BME280;25499;53.958;10.970;2023-03-04T10:46:56;101538.44;;;5.27;80.66
39823;BME280;25499;53.958;10.970;2023-03-04T10:49:23;101542.16;;;5.35;80.61
39823;BME280;25499;53.958;10.970;2023-03-04T10:54:25;101522.28;;;5.05;80.34
39823;BME280;25499;53.958;10.970;2023-03-04T10:57:03;101531.69;;;5.03;80.47
39823;BME280;25499;53.958;10.970;2023-03-04T11:04:38;101569.59;;;5.05;82.65
39823;BME280;25499;53.958;10.970;2023-03-04T11:07:10;101582.66;;;5.10;82.94
39823;BME280;25499;53.958;10.970;2023-03-04T11:09:36;101581.97;;;5.16;83.46
39823;BME280;25499;53.958;10.970;2023-03-04T11:12:05;101594.00;;;5.15;83.70
39823;BME280;25499;53.958;10.970;2023-03-04T11:19:49;101589.53;;;5.37;83.98
39823;BME280;25499;53.958;10.970;2023-03-04T11:22:19;101588.53;;;5.32;83.99
39823;BME280;25499;53.958;10.970;2023-03-04T11:25:00;101591.81;;;5.28;84.65
39823;BME280;25499;53.958;10.970;2023-03-04T11:27:35;101596.97;;;5.28;84.90
39823;BME280;25499;53.958;10.970;2023-03-04T11:30:37;101596.97;;;5.28;85.18
39823;BME280;25499;53.958;10.970;2023-03-04T11:35:52;101599.91;;;5.38;85.19
39823;BME280;25499;53.958;10.970;2023-03-04T11:38:21;101596.22;;;5.30;85.18
39823;BME280;25499;53.958;10.970;2023-03-04T11:41:08;101603.16;;;5.33;85.35
39823;BME280;25499;53.958;10.970;2023-03-04T11:43:42;101601.31;;;5.29;85.29
39823;BME280;25499;53.958;10.970;2023-03-04T11:49:42;101607.19;;;5.50;85.60
39823;BME280;25499;53.958;10.970;2023-03-04T12:17:24;101561.34;;;7.34;81.13
39823;BME280;25499;53.958;10.970;2023-03-04T12:23:17;101554.28;;;9.60;77.68
39823;BME280;25499;53.958;10.970;2023-03-04T12:26:09;101487.28;;;10.11;72.62
39823;BME280;25499;53.958;10.970;2023-03-04T12:31:35;101406.88;;;10.33;67.09
39823;BME280;25499;53.958;10.970;2023-03-04T12:36:41;101436.53;;;9.66;68.43
39823;BME280;25499;53.958;10.970;2023-03-04T12:44:20;101392.69;;;13.54;61.42
39823;BME280;25499;53.958;10.970;2023-03-04T12:55:20;101340.69;;;15.79;52.90
39823;BME280;25499;53.958;10.970;2023-03-04T12:57:49;101333.97;;;16.14;50.96
39823;BME280;25499;53.958;10.970;2023-03-04T13:05:47;101323.16;;;16.32;49.97
39823;BME280;25499;53.958;10.970;2023-03-04T13:10:45;101296.84;;;14.46;50.53
39823;BME280;25499;53.958;10.970;2023-03-04T13:13:54;101322.25;;;13.11;53.39
39823;BME280;25499;53.958;10.970;2023-03-04T13:17:07;101353.75;;;12.50;54.92
39823;BME280;25499;53.958;10.970;2023-03-04T13:19:41;101386.75;;;11.68;57.24
39823;BME280;25499;53.958;10.970;2023-03-04T13:24:51;101363.78;;;10.76;57.86
39823;BME280;25499;53.958;10.970;2023-03-04T13:46:40;101393.13;;;10.54;59.63
39823;BME280;25499;53.958;10.970;2023-03-04T13:49:15;101379.69;;;10.01;59.64
39823;BME280;25499;53.958;10.970;2023-03-04T13:51:43;101399.25;;;9.68;60.82
39823;BME280;25499;53.958;10.970;2023-03-04T13:54:20;101420.00;;;9.61;61.55
39823;BME280;25499;53.958;10.970;2023-03-04T13:57:14;101430.31;;;9.56;62.18
39823;BME280;25499;53.958;10.970;2023-03-04T13:59:53;101445.75;;;9.42;62.69
39823;BME280;25499;53.958;10.970;2023-03-04T14:02:22;101439.41;;;9.20;63.50
39823;BME280;25499;53.958;10.970;2023-03-04T14:07:29;101421.97;;;8.53;64.09
39823;BME280;25499;53.958;10.970;2023-03-04T14:12:50;101455.19;;;8.26;65.47
39823;BME280;25499;53.958;10.970;2023-03-04T14:15:27;101451.97;;;8.39;65.38
39823;BME280;25499;53.958;10.970;2023-03-04T14:17:56;101452.25;;;8.54;65.28
39823;BME280;25499;53.958;10.970;2023-03-04T14:22:51;101446.53;;;8.75;64.47
39823;BME280;25499;53.958;10.970;2023-03-04T14:25:27;101434.56;;;9.48;63.55
39823;BME280;25499;53.958;10.970;2023-03-04T14:28:09;101441.47;;;9.46;63.16
39823;BME280;25499;53.958;10.970;2023-03-04T14:30:36;101428.94;;;9.87;62.13
39823;BME280;25499;53.958;10.970;2023-03-04T14:33:06;101421.53;;;10.27;61.49
39823;BME280;25499;53.958;10.970;2023-03-04T14:35:32;101396.03;;;9.93;61.07
39823;BME280;25499;53.958;10.970;2023-03-04T14:38:04;101401.13;;;9.80;61.06
39823;BME280;25499;53.958;10.970;2023-03-04T14:40:44;101373.16;;;9.56;60.31
39823;BME280;25499;53.958;10.970;2023-03-04T14:43:20;101363.53;;;9.47;60.02
39823;BME280;25499;53.958;10.970;2023-03-04T14:45:54;101371.97;;;9.29;60.52
39823;BME280;25499;53.958;10.970;2023-03-04T14:48:31;101368.56;;;9.37;60.47
39823;BME280;25499;53.958;10.970;2023-03-04T14:51:00;101361.59;;;9.31;60.30
39823;BME280;25499;53.958;10.970;2023-03-04T14:53:28;101334.44;;;9.06;59.24
39823;BME280;25499;53.958;10.970;2023-03-04T14:58:26;101329.25;;;9.07;59.25
39823;BME280;25499;53.958;10.970;2023-03-04T15:01:28;101364.97;;;9.24;60.30
39823;BME280;25499;53.958;10.970;2023-03-04T15:04:06;101344.72;;;8.96;59.90
39823;BME280;25499;53.958;10.970;2023-03-04T15:06:38;101354.41;;;9.10;60.22
39823;BME280;25499;53.958;10.970;2023-03-04T15:09:17;101341.09;;;8.85;60.18
39823;BME280;25499;53.958;10.970;2023-03-04T15:11:46;101333.25;;;8.82;60.04
39823;BME280;25499;53.958;10.970;2023-03-04T15:20:50;101336.16;;;7.91;61.91
39823;BME280;25499;53.958;10.970;2023-03-04T15:25:14;101359.13;;;7.69;62.99
39823;BME280;25499;53.958;10.970;2023-03-04T15:27:40;101349.47;;;7.62;63.05
39823;BME280;25499;53.958;10.970;2023-03-04T15:30:14;101384.69;;;7.51;63.78
39823;BME280;25499;53.958;10.970;2023-03-04T15:32:40;101351.50;;;7.33;63.59
39823;BME280;25499;53.958;10.970;2023-03-04T15:35:06;101360.94;;;7.29;63.49
39823;BME280;25499;53.958;10.970;2023-03-04T15:37:33;101354.91;;;7.30;63.06
39823;BME280;25499;53.958;10.970;2023-03-04T15:39:59;101375.03;;;7.02;63.78
39823;BME280;25499;53.958;10.970;2023-03-04T15:42:25;101359.78;;;7.15;63.75
39823;BME280;25499;53.958;10.970;2023-03-04T15:44:52;101367.16;;;6.96;63.82
39823;BME280;25499;53.958;10.970;2023-03-04T15:47:17;101352.94;;;6.77;63.60
39823;BME280;25499;53.958;10.970;2023-03-04T15:49:43;101347.59;;;6.69;63.60
39823;BME280;25499;53.958;10.970;2023-03-04T15:52:21;101328.16;;;6.49;63.14
39823;BME280;25499;53.958;10.970;2023-03-04T15:54:49;101339.72;;;6.27;63.66
39823;BME280;25499;53.958;10.970;2023-03-04T15:57:25;101346.19;;;6.09;64.35
39823;BME280;25499;53.958;10.970;2023-03-04T15:59:52;101329.28;;;5.90;64.06
39823;BME280;25499;53.958;10.970;2023-03-04T16:02:22;101322.16;;;5.80;63.79
39823;BME280;25499;53.958;10.970;2023-03-04T16:04:48;101325.59;;;5.79;63.88
39823;BME280;25499;53.958;10.970;2023-03-04T16:07:19;101327.94;;;5.71;64.03
39823;BME280;25499;53.958;10.970;2023-03-04T16:09:45;101298.22;;;5.54;63.47
39823;BME280;25499;53.958;10.970;2023-03-04T16:12:14;101268.16;;;5.24;62.92
39823;BME280;25499;53.958;10.970;2023-03-04T16:14:39;101267.59;;;5.34;62.51
39823;BME280;25499;53.958;10.970;2023-03-04T16:17:06;101264.69;;;5.22;62.64
39823;BME280;25499;53.958;10.970;2023-03-04T16:19:32;101285.78;;;5.07;62.92
39823;BME280;25499;53.958;10.970;2023-03-04T16:21:57;101295.91;;;4.99;63.64
39823;BME280;25499;53.958;10.970;2023-03-04T16:24:23;101317.44;;;5.01;64.30
39823;BME280;25499;53.958;10.970;2023-03-04T16:26:48;101316.75;;;5.07;64.49
39823;BME280;25499;53.958;10.970;2023-03-04T16:29:14;101326.84;;;4.99;64.93
39823;BME280;25499;53.958;10.970;2023-03-04T16:31:40;101331.69;;;4.89;65.58
39823;BME280;25499;53.958;10.970;2023-03-04T16:34:05;101337.66;;;4.86;65.99
39823;BME280;25499;53.958;10.970;2023-03-04T16:36:31;101358.09;;;4.80;66.89
39823;BME280;25499;53.958;10.970;2023-03-04T16:39:00;101357.81;;;4.71;67.29
39823;BME280;25499;53.958;10.970;2023-03-04T16:41:28;101372.69;;;4.79;67.99
39823;BME280;25499;53.958;10.970;2023-03-04T16:43:57;101373.47;;;4.77;67.80
39823;BME280;25499;53.958;10.970;2023-03-04T16:46:24;101375.13;;;4.75;67.89
39823;BME280;25499;53.958;10.970;2023-03-04T16:48:50;101397.53;;;4.76;68.75
39823;BME280;25499;53.958;10.970;2023-03-04T16:51:18;101387.00;;;4.70;68.98
39823;BME280;25499;53.958;10.970;2023-03-04T16:53:48;101382.66;;;4.67;68.92
39823;BME280;25499;53.958;10.970;2023-03-04T16:56:16;101380.00;;;4.65;69.02
39823;BME280;25499;53.958;10.970;2023-03-04T16:58:42;101382.50;;;4.62;68.83
39823;BME280;25499;53.958;10.970;2023-03-04T17:01:22;101358.41;;;4.62;68.25
39823;BME280;25499;53.958;10.970;2023-03-04T17:03:48;101341.03;;;4.56;67.43
39823;BME280;25499;53.958;10.970;2023-03-04T17:06:15;101331.63;;;4.57;67.07
39823;BME280;25499;53.958;10.970;2023-03-04T17:08:41;101329.75;;;4.53;67.08
39823;BME280;25499;53.958;10.970;2023-03-04T17:11:10;101327.91;;;4.48;67.16
39823;BME280;25499;53.958;10.970;2023-03-04T17:13:36;101324.28;;;4.42;67.06
39823;BME280;25499;53.958;10.970;2023-03-04T17:16:02;101318.91;;;4.36;66.85
39823;BME280;25499;53.958;10.970;2023-03-04T17:18:28;101323.84;;;4.28;67.08
39823;BME280;25499;53.958;10.970;2023-03-04T17:21:01;101334.97;;;4.27;67.43
39823;BME280;25499;53.958;10.970;2023-03-04T17:23:26;101346.88;;;4.23;68.08
39823;BME280;25499;53.958;10.970;2023-03-04T17:25:56;101355.75;;;4.32;68.40
39823;BME280;25499;53.958;10.970;2023-03-04T17:28:22;101374.53;;;4.29;69.13
39823;BME280;25499;53.958;10.970;2023-03-04T17:30:47;101381.38;;;4.27;69.88
39823;BME280;25499;53.958;10.970;2023-03-04T17:33:12;101376.84;;;4.20;69.85
39823;BME280;25499;53.958;10.970;2023-03-04T17:35:38;101383.72;;;4.21;70.13
39823;BME280;25499;53.958;10.970;2023-03-04T17:38:04;101394.13;;;4.24;70.90
39823;BME280;25499;53.958;10.970;2023-03-04T17:40:31;101384.25;;;4.10;70.43
39823;BME280;25499;53.958;10.970;2023-03-04T17:42:56;101390.53;;;4.19;70.78
39823;BME280;25499;53.958;10.970;2023-03-04T17:45:21;101396.59;;;4.19;71.13
39823;BME280;25499;53.958;10.970;2023-03-04T17:47:47;101385.28;;;4.16;71.20
39823;BME280;25499;53.958;10.970;2023-03-04T17:50:12;101402.56;;;4.18;72.04
39823;BME280;25499;53.958;10.970;2023-03-04T17:52:38;101421.31;;;4.14;73.52
39823;BME280;25499;53.958;10.970;2023-03-04T17:55:03;101431.56;;;4.13;74.61
39823;BME280;25499;53.958;10.970;2023-03-04T17:57:29;101437.66;;;4.15;75.15
39823;BME280;25499;53.958;10.970;2023-03-04T17:59:54;101439.81;;;4.02;76.32
39823;BME280;25499;53.958;10.970;2023-03-04T18:02:20;101446.25;;;4.15;77.00
39823;BME280;25499;53.958;10.970;2023-03-04T18:04:46;101426.47;;;4.14;77.13
39823;BME280;25499;53.958;10.970;2023-03-04T18:07:13;101418.34;;;4.55;76.15
39823;BME280;25499;53.958;10.970;2023-03-04T18:09:38;101390.06;;;4.30;74.47
39823;BME280;25499;53.958;10.970;2023-03-04T18:12:04;101372.16;;;4.08;74.17
39823;BME280;25499;53.958;10.970;2023-03-04T18:14:30;101399.88;;;4.15;74.77
39823;BME280;25499;53.958;10.970;2023-03-04T18:16:55;101394.56;;;4.10;74.83
39823;BME280;25499;53.958;10.970;2023-03-04T18:19:21;101383.94;;;4.01;74.60
39823;BME280;25499;53.958;10.970;2023-03-04T18:21:46;101389.78;;;3.96;75.18
39823;BME280;25499;53.958;10.970;2023-03-04T18:24:12;101404.84;;;4.10;75.83
39823;BME280;25499;53.958;10.970;2023-03-04T18:26:37;101402.59;;;4.20;76.19
39823;BME280;25499;53.958;10.970;2023-03-04T18:29:02;101407.19;;;4.03;76.74
39823;BME280;25499;53.958;10.970;2023-03-04T18:31:28;101410.63;;;4.03;77.51
39823;BME280;25499;53.958;10.970;2023-03-04T18:33:56;101398.59;;;4.02;77.34
39823;BME280;25499;53.958;10.970;2023-03-04T18:36:22;101370.09;;;3.98;76.15
39823;BME280;25499;53.958;10.970;2023-03-04T18:38:48;101370.31;;;3.80;76.02
39823;BME280;25499;53.958;10.970;2023-03-04T18:41:14;101380.22;;;3.93;76.00
39823;BME280;25499;53.958;10.970;2023-03-04T18:43:40;101362.72;;;4.08;75.70
39823;BME280;25499;53.958;10.970;2023-03-04T18:46:17;101352.69;;;4.16;75.22
39823;BME280;25499;53.958;10.970;2023-03-04T18:48:49;101347.47;;;3.89;75.29
39823;BME280;25499;53.958;10.970;2023-03-04T18:51:16;101338.81;;;3.87;74.62
39823;BME280;25499;53.958;10.970;2023-03-04T18:53:41;101340.28;;;3.79;74.97
39823;BME280;25499;53.958;10.970;2023-03-04T18:57:05;101342.13;;;3.83;75.02
39823;BME280;25499;53.958;10.970;2023-03-04T18:59:07;101336.13;;;3.58;75.26
39823;BME280;25499;53.958;10.970;2023-03-04T19:01:33;101351.59;;;3.84;75.29
39823;BME280;25499;53.958;10.970;2023-03-04T19:04:00;101339.75;;;3.89;74.58
39823;BME280;25499;53.958;10.970;2023-03-04T19:06:32;101328.09;;;3.74;74.57
39823;BME280;25499;53.958;10.970;2023-03-04T19:08:58;101340.03;;;3.72;74.88
39823;BME280;25499;53.958;10.970;2023-03-04T19:11:24;101358.94;;;3.73;75.60
39823;BME280;25499;53.958;10.970;2023-03-04T19:13:52;101361.78;;;3.81;75.91
39823;BME280;25499;53.958;10.970;2023-03-04T19:16:18;101383.09;;;3.77;76.63
39823;BME280;25499;53.958;10.970;2023-03-04T19:18:43;101383.66;;;3.68;77.32
39823;BME280;25499;53.958;10.970;2023-03-04T19:21:08;101396.28;;;3.60;78.40
39823;BME280;25499;53.958;10.970;2023-03-04T19:23:34;101407.50;;;3.62;79.33
39823;BME280;25499;53.958;10.970;2023-03-04T19:25:59;101413.50;;;3.63;80.11
39823;BME280;25499;53.958;10.970;2023-03-04T19:28:25;101414.34;;;3.62;80.27
39823;BME280;25499;53.958;10.970;2023-03-04T19:30:50;101417.34;;;3.74;80.47
39823;BME280;25499;53.958;10.970;2023-03-04T19:33:18;101419.19;;;3.78;81.02
39823;BME280;25499;53.958;10.970;2023-03-04T19:35:44;101424.75;;;3.89;81.53
39823;BME280;25499;53.958;10.970;2023-03-04T19:38:10;101432.03;;;4.01;81.51
39823;BME280;25499;53.958;10.970;2023-03-04T19:40:40;101409.78;;;4.03;80.63
39823;BME280;25499;53.958;10.970;2023-03-04T19:43:06;101404.84;;;4.10;80.18
39823;BME280;25499;53.958;10.970;2023-03-04T19:45:32;101399.47;;;4.03;80.27
39823;BME280;25499;53.958;10.970;2023-03-04T19:47:58;101394.03;;;3.95;79.90
39823;BME280;25499;53.958;10.970;2023-03-04T19:50:24;101368.84;;;3.86;78.70
39823;BME280;25499;53.958;10.970;2023-03-04T19:52:51;101343.94;;;3.87;76.72
39823;BME280;25499;53.958;10.970;2023-03-04T19:55:16;101326.66;;;3.83;75.28
39823;BME280;25499;53.958;10.970;2023-03-04T19:57:42;101315.31;;;3.78;74.57
39823;BME280;25499;53.958;10.970;2023-03-04T20:00:09;101308.47;;;3.78;74.19
39823;BME280;25499;53.958;10.970;2023-03-04T20:02:35;101310.59;;;3.64;74.74
39823;BME280;25499;53.958;10.970;2023-03-04T20:05:00;101328.81;;;3.70;75.13
39823;BME280;25499;53.958;10.970;2023-03-04T20:07:26;101340.56;;;3.62;75.92
39823;BME280;25499;53.958;10.970;2023-03-04T20:09:53;101352.88;;;3.71;76.26
39823;BME280;25499;53.958;10.970;2023-03-04T20:12:19;101346.84;;;3.70;76.21
39823;BME280;25499;53.958;10.970;2023-03-04T20:14:44;101326.09;;;3.66;75.75
39823;BME280;25499;53.958;10.970;2023-03-04T20:17:10;101338.03;;;3.64;75.78
39823;BME280;25499;53.958;10.970;2023-03-04T20:19:35;101337.63;;;3.53;75.98
39823;BME280;25499;53.958;10.970;2023-03-04T20:22:01;101354.19;;;3.60;76.39
39823;BME280;25499;53.958;10.970;2023-03-04T20:24:27;101353.84;;;3.74;75.91
39823;BME280;25499;53.958;10.970;2023-03-04T20:26:52;101343.06;;;3.61;75.63
39823;BME280;25499;53.958;10.970;2023-03-04T20:29:18;101349.81;;;3.57;75.78
39823;BME280;25499;53.958;10.970;2023-03-04T20:31:44;101330.34;;;3.40;75.93
39823;BME280;25499;53.958;10.970;2023-03-04T20:34:11;101337.28;;;3.42;75.64
39823;BME280;25499;53.958;10.970;2023-03-04T20:36:36;101330.41;;;3.43;75.56
39823;BME280;25499;53.958;10.970;2023-03-04T20:39:03;101323.09;;;3.53;74.95
39823;BME280;25499;53.958;10.970;2023-03-04T20:41:29;101295.00;;;3.35;74.41
39823;BME280;25499;53.958;10.970;2023-03-04T20:43:56;101315.16;;;3.47;74.25
39823;BME280;25499;53.958;10.970;2023-03-04T20:46:25;101316.00;;;3.48;74.42
39823;BME280;25499;53.958;10.970;2023-03-04T20:48:57;101286.03;;;3.48;74.00
39823;BME280;25499;53.958;10.970;2023-03-04T20:51:24;101283.16;;;3.41;72.84
39823;BME280;25499;53.958;10.970;2023-03-04T20:53:50;101259.81;;;3.34;72.33
39823;BME280;25499;53.958;10.970;2023-03-04T20:56:16;101257.88;;;3.29;71.82
39823;BME280;25499;53.958;10.970;2023-03-04T20:58:42;101265.78;;;3.33;71.63
39823;BME280;25499;53.958;10.970;2023-03-04T21:01:11;101265.41;;;3.23;71.70
39823;BME280;25499;53.958;10.970;2023-03-04T21:03:37;101283.00;;;3.36;72.00
39823;BME280;25499;53.958;10.970;2023-03-04T21:06:03;101272.53;;;3.30;71.82
39823;BME280;25499;53.958;10.970;2023-03-04T21:08:29;101273.56;;;3.35;71.82
39823;BME280;25499;53.958;10.970;2023-03-04T21:10:54;101262.06;;;3.25;71.76
39823;BME280;25499;53.958;10.970;2023-03-04T21:13:19;101267.94;;;3.21;72.00
39823;BME280;25499;53.958;10.970;2023-03-04T21:15:48;101257.53;;;3.18;71.54
39823;BME280;25499;53.958;10.970;2023-03-04T21:18:15;101256.91;;;3.25;71.26
39823;BME280;25499;53.958;10.970;2023-03-04T21:20:41;101253.84;;;3.11;71.74
39823;BME280;25499;53.958;10.970;2023-03-04T21:23:06;101271.31;;;3.20;71.93
39823;BME280;25499;53.958;10.970;2023-03-04T21:25:32;101261.88;;;3.21;71.84
39823;BME280;25499;53.958;10.970;2023-03-04T21:27:57;101257.34;;;3.13;71.69
39823;BME280;25499;53.958;10.970;2023-03-04T21:30:23;101265.13;;;3.15;71.82
39823;BME280;25499;53.958;10.970;2023-03-04T21:32:48;101233.84;;;3.03;71.20
39823;BME280;25499;53.958;10.970;2023-03-04T21:35:14;101227.66;;;2.97;71.05
39823;BME280;25499;53.958;10.970;2023-03-04T21:37:39;101220.63;;;2.93;70.98
39823;BME280;25499;53.958;10.970;2023-03-04T21:40:07;101233.97;;;2.83;70.90
39823;BME280;25499;53.958;10.970;2023-03-04T21:42:33;101236.63;;;2.85;71.46
39823;BME280;25499;53.958;10.970;2023-03-04T21:44:58;101245.69;;;2.75;71.83
39823;BME280;25499;53.958;10.970;2023-03-04T21:47:23;101252.59;;;2.76;72.32
39823;BME280;25499;53.958;10.970;2023-03-04T21:49:49;101250.41;;;2.87;72.22
39823;BME280;25499;53.958;10.970;2023-03-04T21:52:19;101234.97;;;2.87;71.85
